Time;durP1;ratioP1;P1;durP2;ratioP2;P2;SDS_P1;SDS_P2;PMS_P1;PMS_P2;Temp;Humidity;BMP_temperature;BMP_pressure;BME280_temperature;BME280_humidity;BME280_pressure;Samples;Min_cycle;Max_cycle;Signal;HPM_P1;HPM_P2
2023/06/28 00:01:17;;;;;;;0.38;0.38;;;23.70;52.00;;;24.17;36.87;94992.97;5034886;28;20512;-41
2023/06/28 00:03:45;;;;;;;0.30;0.30;;;23.70;51.90;;;24.15;36.80;94987.06;5034172;28;20193;-43
2023/06/28 00:06:12;;;;;;;0.30;0.30;;;23.70;52.00;;;24.14;36.74;94978.22;5033850;28;20257;-42
2023/06/28 00:08:43;;;;;;;0.38;0.38;;;23.70;52.10;;;24.14;37.19;94982.78;5033992;28;20222;-41
2023/06/28 00:11:10;;;;;;;0.30;0.30;;;23.70;52.10;;;24.16;37.16;94982.50;5034242;28;20177;-43
2023/06/28 00:13:38;;;;;;;0.30;0.30;;;23.70;52.20;;;24.15;37.02;94981.69;5034164;28;20228;-45
2023/06/28 00:16:05;;;;;;;0.40;0.40;;;23.70;52.20;;;24.12;37.18;94980.38;5034237;28;20273;-45
2023/06/28 00:18:33;;;;;;;0.40;0.40;;;23.60;52.20;;;24.12;37.39;94969.66;5033842;28;20222;-45
2023/06/28 00:21:02;;;;;;;0.40;0.40;;;23.60;52.20;;;24.12;37.28;94966.97;5048972;28;20196;-44
2023/06/28 00:23:30;;;;;;;0.30;0.30;;;23.70;52.50;;;24.11;37.56;94960.00;5033705;28;20334;-45
2023/06/28 00:25:57;;;;;;;0.30;0.30;;;23.60;52.50;;;24.12;37.48;94958.13;5033488;28;20213;-43
2023/06/28 00:28:25;;;;;;;0.30;0.30;;;23.60;52.60;;;24.10;37.68;94952.25;5049323;28;20201;-45
2023/06/28 00:30:52;;;;;;;0.30;0.30;;;23.70;52.90;;;24.11;37.75;94961.91;5033918;28;20197;-44
2023/06/28 00:33:20;;;;;;;0.30;0.30;;;23.60;52.70;;;24.11;37.69;94962.69;5033901;28;20306;-44
2023/06/28 00:35:49;;;;;;;0.30;0.30;;;23.70;52.80;;;24.09;37.66;94964.06;5032617;28;20200;-45
2023/06/28 00:38:16;;;;;;;0.30;0.30;;;23.60;52.70;;;24.07;37.53;94977.72;5048969;28;20274;-45
2023/06/28 00:40:44;;;;;;;0.30;0.30;;;23.70;52.60;;;24.04;37.66;94978.28;5049168;28;20291;-41
2023/06/28 00:43:12;;;;;;;0.40;0.40;;;23.60;52.50;;;24.02;37.49;94983.09;5049141;28;20211;-45
2023/06/28 00:45:39;;;;;;;0.30;0.30;;;23.60;52.60;;;24.01;37.50;94988.72;5032528;28;20228;-41
2023/06/28 00:48:07;;;;;;;0.40;0.40;;;23.50;52.50;;;23.97;37.77;95000.00;5032323;28;20210;-41
2023/06/28 00:50:36;;;;;;;0.30;0.30;;;23.50;52.40;;;23.95;37.70;95012.09;5032501;28;20185;-41
2023/06/28 00:53:05;;;;;;;0.40;0.40;;;23.50;52.50;;;23.91;37.68;95011.81;5032339;28;20215;-41
2023/06/28 00:55:32;;;;;;;0.30;0.30;;;23.50;52.60;;;23.90;37.84;95018.22;5033251;28;20596;-41
2023/06/28 00:58:01;;;;;;;0.40;0.40;;;23.50;52.70;;;23.88;37.83;95025.72;5016500;28;20288;-41
2023/06/28 01:00:28;;;;;;;0.35;0.35;;;23.40;52.70;;;23.85;37.68;95036.97;4999876;28;20205;-42
2023/06/28 01:02:55;;;;;;;0.43;0.43;;;23.40;52.80;;;23.85;37.70;95042.31;5032312;28;20229;-42
2023/06/28 01:05:23;;;;;;;0.30;0.30;;;23.40;52.80;;;23.83;37.76;95031.09;5032071;28;20551;-41
2023/06/28 01:07:53;;;;;;;0.40;0.40;;;23.30;52.90;;;23.80;38.13;95035.13;5048413;28;20218;-43
2023/06/28 01:10:20;;;;;;;0.40;0.40;;;23.40;53.00;;;23.79;38.13;95032.72;5048694;28;20192;-42
2023/06/28 01:12:49;;;;;;;0.38;0.38;;;23.30;52.90;;;23.75;37.75;95037.81;5048909;28;20278;-41
2023/06/28 01:15:16;;;;;;;0.40;0.40;;;23.40;53.20;;;23.75;38.17;95035.13;5033286;28;20206;-42
2023/06/28 01:17:44;;;;;;;0.43;0.43;;;23.30;53.10;;;23.71;38.36;95026.03;5031795;28;20299;-42
2023/06/28 01:20:11;;;;;;;0.30;0.30;;;23.30;53.20;;;23.75;38.14;95045.06;5032873;28;20662;-42
2023/06/28 01:22:43;;;;;;;0.32;0.32;;;23.30;53.30;;;23.73;38.20;95039.16;5031752;28;20192;-43
2023/06/28 01:25:11;;;;;;;0.35;0.35;;;23.20;53.10;;;23.72;37.96;95046.41;5032227;28;20200;-42
2023/06/28 01:27:44;;;;;;;0.32;0.32;;;23.20;53.10;;;23.72;38.28;95046.41;5031660;28;20225;-43
2023/06/28 01:30:14;;;;;;;0.40;0.40;;;23.30;53.40;;;23.70;38.09;95043.19;5032502;28;20275;-47
2023/06/28 01:32:43;;;;;;;0.40;0.40;;;23.20;53.40;;;23.71;38.32;95041.31;5031869;28;20180;-41
2023/06/28 01:35:14;;;;;;;0.35;0.35;;;23.20;53.40;;;23.71;38.44;95041.31;5048291;28;20223;-45
2023/06/28 01:37:43;;;;;;;0.40;0.40;;;23.20;53.40;;;23.70;38.49;95048.53;5031921;28;20197;-45
2023/06/28 01:40:11;;;;;;;0.30;0.30;;;23.30;53.60;;;23.70;38.38;95051.22;5031736;28;20199;-41
2023/06/28 01:42:39;;;;;;;0.38;0.38;;;23.30;53.60;;;23.71;38.41;95041.31;5031611;28;20305;-43
2023/06/28 01:45:07;;;;;;;0.32;0.32;;;23.30;53.70;;;23.70;38.44;95040.50;5031602;28;20211;-45
2023/06/28 01:47:35;;;;;;;0.30;0.30;;;23.30;53.80;;;23.69;38.43;95038.09;5032330;28;20219;-41
2023/06/28 01:50:02;;;;;;;0.38;0.38;;;23.30;53.70;;;23.68;38.46;95037.31;5031609;28;20204;-41
2023/06/28 01:52:30;;;;;;;0.30;0.30;;;23.20;53.60;;;23.65;38.24;95035.97;5032656;28;20188;-41
2023/06/28 01:54:59;;;;;;;0.40;0.40;;;23.20;53.70;;;23.65;38.52;95027.94;5031399;28;20556;-41
2023/06/28 01:57:26;;;;;;;0.40;0.40;;;23.20;53.60;;;23.63;38.56;95026.59;5031291;28;20687;-41
2023/06/28 01:59:54;;;;;;;0.40;0.40;;;23.20;53.70;;;23.61;38.55;95024.19;5047916;28;20208;-42
2023/06/28 02:02:22;;;;;;;0.38;0.38;;;23.20;53.70;;;23.60;38.86;95017.22;5032268;28;20204;-43
2023/06/28 02:04:49;;;;;;;0.40;0.40;;;23.20;54.90;;;23.58;38.76;95016.72;5032318;28;20243;-41
2023/06/28 02:07:16;;;;;;;0.38;0.38;;;23.20;53.70;;;23.56;38.55;95013.50;5047614;28;20196;-42
2023/06/28 02:09:45;;;;;;;0.35;0.35;;;23.20;53.80;;;23.55;38.72;95016.47;5031213;28;20196;-43
2023/06/28 02:12:12;;;;;;;0.38;0.38;;;23.20;53.90;;;23.52;39.03;95009.75;5032397;28;20287;-41
2023/06/28 02:14:39;;;;;;;0.30;0.30;;;23.20;53.90;;;23.50;39.04;95012.72;5032319;28;20211;-41
2023/06/28 02:17:13;;;;;;;0.38;0.38;;;23.10;53.80;;;23.48;38.49;95014.06;5031123;28;20249;-41
2023/06/28 02:19:41;;;;;;;0.40;0.40;;;23.10;53.80;;;23.46;38.79;95011.66;5031159;28;20265;-42
2023/06/28 02:22:08;;;;;;;0.40;0.40;;;23.10;53.90;;;23.46;38.82;95016.19;5047670;28;20209;-43
2023/06/28 02:24:35;;;;;;;0.30;0.30;;;23.10;54.00;;;23.41;39.00;95011.66;5030970;28;20305;-41
2023/06/28 02:27:04;;;;;;;0.30;0.30;;;23.00;53.90;;;23.43;38.99;95016.75;5031992;28;20196;-42
2023/06/28 02:29:31;;;;;;;0.30;0.30;;;23.10;54.00;;;23.42;39.27;95018.59;5031801;28;20206;-41
2023/06/28 02:31:59;;;;;;;0.38;0.38;;;23.10;54.10;;;23.40;39.10;95014.59;5030968;28;20200;-43
2023/06/28 02:34:26;;;;;;;0.30;0.30;;;23.00;54.00;;;23.38;39.30;95014.09;5031887;28;20199;-42
2023/06/28 02:36:54;;;;;;;0.47;0.47;;;23.00;54.10;;;23.37;39.07;95015.16;5047532;28;20196;-41
2023/06/28 02:39:22;;;;;;;0.40;0.40;;;23.00;55.40;;;23.33;39.15;95010.31;5031055;28;20216;-41
2023/06/28 02:41:50;;;;;;;0.40;0.40;;;23.00;54.00;;;23.29;39.19;95003.09;5031823;28;20220;-40
2023/06/28 02:44:17;;;;;;;0.40;0.40;;;23.00;54.10;;;23.28;39.39;94999.63;5119433;27;20581;-41
2023/06/28 02:46:46;;;;;;;0.40;0.40;;;23.00;54.10;;;23.26;39.04;94998.31;5035530;28;20188;-40
2023/06/28 02:49:13;;;;;;;0.40;0.40;;;22.90;54.10;;;23.25;39.43;95008.19;5034126;28;20211;-40
2023/06/28 02:51:41;;;;;;;0.40;0.40;;;22.90;54.20;;;23.23;39.39;95001.50;5035172;28;20525;-41
2023/06/28 02:54:11;;;;;;;0.30;0.30;;;22.90;54.20;;;23.23;39.36;95009.53;5051066;28;20196;-41
2023/06/28 02:56:39;;;;;;;0.38;0.38;;;22.90;54.30;;;23.22;39.40;95010.59;5035436;28;20299;-40
2023/06/28 02:59:26;;;;;;;0.40;0.40;;;22.80;54.30;;;23.20;39.55;95002.84;5034913;28;20523;-41
2023/06/28 03:01:56;;;;;;;0.40;0.40;;;22.80;54.40;;;23.18;39.30;95005.81;5050684;28;20206;-40
2023/06/28 03:04:27;;;;;;;0.30;0.30;;;22.80;54.40;;;23.17;39.70;95006.88;5035169;28;20536;-42
2023/06/28 03:07:00;;;;;;;0.40;0.40;;;22.80;54.60;;;23.16;39.22;95002.59;5034033;28;20249;-41
2023/06/28 03:09:28;;;;;;;0.40;0.40;;;22.80;54.60;;;23.17;39.66;95003.41;5050414;28;20255;-42
2023/06/28 03:11:55;;;;;;;0.40;0.40;;;22.80;54.60;;;23.15;39.75;95008.97;5035182;28;20194;-41
2023/06/28 03:14:22;;;;;;;0.30;0.30;;;22.80;54.70;;;23.15;39.56;94997.47;5034843;28;20192;-41
2023/06/28 03:16:49;;;;;;;0.40;0.40;;;22.80;54.80;;;23.15;39.38;95000.16;5033961;28;20309;-41
2023/06/28 03:19:17;;;;;;;0.40;0.40;;;22.80;54.80;;;23.14;39.71;95007.41;5033600;28;20521;-44
2023/06/28 03:21:44;;;;;;;0.40;0.40;;;22.80;54.80;;;23.14;39.62;95011.94;5034672;28;20248;-43
2023/06/28 03:24:11;;;;;;;0.40;0.40;;;22.70;54.70;;;23.12;39.42;95012.22;5017318;28;20240;-42
2023/06/28 03:26:41;;;;;;;0.40;0.40;;;22.80;54.90;;;23.12;39.89;95012.22;5033584;28;20224;-42
2023/06/28 03:29:08;;;;;;;0.30;0.30;;;22.80;54.90;;;23.11;39.64;95007.13;5017260;28;20722;-42
2023/06/28 03:31:36;;;;;;;0.40;0.40;;;22.70;54.80;;;23.10;39.84;95002.84;5033558;28;20647;-45
2023/06/28 03:34:05;;;;;;;0.40;0.40;;;22.70;54.70;;;23.07;39.72;95014.88;5050205;28;20220;-42
2023/06/28 03:36:34;;;;;;;0.40;0.40;;;22.70;54.70;;;23.07;39.57;95003.38;5050141;28;20196;-42
2023/06/28 03:39:03;;;;;;;0.40;0.40;;;22.70;54.70;;;23.05;39.82;95000.19;5050059;28;20207;-41
2023/06/28 03:41:31;;;;;;;0.30;0.30;;;22.70;54.90;;;23.03;39.53;95003.09;5033426;28;20230;-42
2023/06/28 03:43:58;;;;;;;0.40;0.40;;;22.70;54.90;;;23.01;39.78;95003.38;5034660;28;20534;-41
2023/06/28 03:46:26;;;;;;;0.32;0.32;;;22.70;54.90;;;23.00;39.56;95004.44;5033431;28;20558;-41
2023/06/28 03:48:53;;;;;;;0.40;0.40;;;22.60;54.80;;;23.00;39.83;95003.66;5034183;28;20197;-41
2023/06/28 03:51:20;;;;;;;0.30;0.30;;;22.60;54.90;;;22.99;39.57;95000.16;5049901;28;20203;-41
2023/06/28 03:53:47;;;;;;;0.40;0.40;;;22.60;54.90;;;22.99;39.79;95002.84;5035056;28;20215;-46
2023/06/28 03:56:15;;;;;;;0.32;0.32;;;22.60;54.90;;;22.97;40.02;95010.34;5049217;28;20196;-43
2023/06/28 03:58:42;;;;;;;0.40;0.40;;;22.60;55.00;;;22.97;39.73;95014.88;5034342;28;20605;-46
2023/06/28 04:01:09;;;;;;;0.30;0.30;;;22.60;55.00;;;22.95;40.11;95001.78;5033191;28;20305;-43
2023/06/28 04:03:37;;;;;;;0.40;0.40;;;22.60;55.10;;;22.95;39.91;95011.66;5034060;28;20200;-44
2023/06/28 04:06:05;;;;;;;0.40;0.40;;;22.60;55.00;;;22.95;39.89;95015.16;5034262;28;20245;-43
2023/06/28 04:08:32;;;;;;;0.40;0.40;;;22.60;55.00;;;22.93;39.90;95008.47;5033872;28;20200;-43
2023/06/28 04:10:59;;;;;;;0.40;0.40;;;22.60;55.10;;;22.94;40.03;95010.06;5033132;28;20702;-43
2023/06/28 04:13:26;;;;;;;0.32;0.32;;;22.60;55.10;;;22.93;39.97;95014.59;5033010;28;20297;-44
2023/06/28 04:15:53;;;;;;;0.40;0.40;;;22.60;55.20;;;22.93;39.97;95011.16;5034216;28;20208;-46
2023/06/28 04:18:21;;;;;;;0.30;0.30;;;22.60;55.20;;;22.92;40.12;95014.88;5033886;28;20202;-42
2023/06/28 04:20:48;;;;;;;0.40;0.40;;;22.50;55.00;;;22.92;40.07;95025.59;5033856;28;20197;-45
2023/06/28 04:23:15;;;;;;;0.30;0.30;;;22.60;55.20;;;22.91;39.98;95024.78;5033836;28;20244;-46
2023/06/28 04:25:44;;;;;;;0.40;0.40;;;22.60;55.30;;;22.90;40.21;95022.38;5033719;28;20247;-45
2023/06/28 04:28:11;;;;;;;0.40;0.40;;;22.60;55.20;;;22.90;40.32;95030.38;5033932;28;20627;-40
2023/06/28 04:30:38;;;;;;;0.40;0.40;;;22.50;55.20;;;22.88;39.92;95038.69;5034259;28;20275;-41
2023/06/28 04:33:05;;;;;;;0.40;0.40;;;22.60;55.20;;;22.87;40.18;95039.75;5033653;28;20581;-41
2023/06/28 04:35:35;;;;;;;0.40;0.40;;;22.60;55.20;;;22.87;40.27;95034.41;5033605;28;20676;-40
2023/06/28 04:38:03;;;;;;;0.35;0.35;;;22.50;55.20;;;22.87;40.23;95039.75;5033826;28;20284;-41
2023/06/28 04:40:32;;;;;;;0.40;0.40;;;22.60;55.30;;;22.86;40.43;95035.47;5033412;28;20238;-41
2023/06/28 04:43:00;;;;;;;0.40;0.40;;;22.60;55.20;;;22.84;40.41;95040.28;5033467;28;20220;-42
2023/06/28 04:45:36;;;;;;;0.38;0.38;;;22.50;55.10;;;22.83;40.40;95036.00;5033384;28;20296;-43
2023/06/28 04:48:05;;;;;;;0.40;0.40;;;22.50;55.20;;;22.82;40.25;95037.88;5033483;28;20176;-43
2023/06/28 04:50:37;;;;;;;0.30;0.30;;;22.50;55.30;;;22.81;39.98;95044.31;5033233;28;20241;-41
2023/06/28 04:53:05;;;;;;;0.40;0.40;;;22.50;55.20;;;22.82;40.37;95039.75;5033619;28;20198;-43
2023/06/28 04:55:34;;;;;;;0.40;0.40;;;22.50;55.20;;;22.81;39.92;95038.97;5032434;28;20224;-43
2023/06/28 04:58:04;;;;;;;0.40;0.40;;;22.50;55.30;;;22.82;40.38;95042.44;5032406;28;20192;-43
2023/06/28 05:00:33;;;;;;;0.30;0.30;;;22.50;55.40;;;22.83;40.22;95044.03;5033818;28;20291;-42
2023/06/28 05:03:00;;;;;;;0.43;0.43;;;22.50;55.50;;;22.83;40.66;95042.16;5033159;28;20209;-41
2023/06/28 05:05:29;;;;;;;0.35;0.35;;;22.50;55.50;;;22.84;40.27;95043.75;5033136;28;20216;-43
2023/06/28 05:07:56;;;;;;;0.40;0.40;;;22.50;55.50;;;22.84;40.36;95045.66;5031428;28;20198;-42
2023/06/28 05:10:24;;;;;;;0.30;0.30;;;22.50;55.50;;;22.85;40.36;95055.25;5033084;28;20531;-43
2023/06/28 05:12:51;;;;;;;0.40;0.40;;;22.60;55.70;;;22.85;40.62;95050.72;5032163;28;20196;-41
2023/06/28 05:15:19;;;;;;;0.38;0.38;;;22.60;55.70;;;22.86;40.75;95054.19;5032951;28;20546;-42
2023/06/28 05:17:46;;;;;;;0.40;0.40;;;22.60;55.60;;;22.86;40.43;95048.84;5032962;28;20224;-44
2023/06/28 05:20:14;;;;;;;0.40;0.40;;;22.60;55.60;;;22.87;40.69;95050.44;5032758;28;20210;-44
2023/06/28 05:22:48;;;;;;;0.40;0.40;;;22.60;55.70;;;22.86;40.68;95041.63;5032683;28;20279;-41
2023/06/28 05:25:16;;;;;;;0.40;0.40;;;22.60;55.70;;;22.87;40.39;95047.78;5033343;28;20191;-42
2023/06/28 05:27:43;;;;;;;0.30;0.30;;;22.60;55.60;;;22.88;40.84;95038.69;5048359;28;20192;-44
2023/06/28 05:30:11;;;;;;;0.30;0.30;;;22.60;55.80;;;22.88;40.35;95036.00;5031677;28;20200;-39
2023/06/28 05:32:39;;;;;;;0.40;0.40;;;22.60;55.80;;;22.90;40.54;95038.41;5032872;28;20195;-41
2023/06/28 05:35:07;;;;;;;0.40;0.40;;;22.60;55.80;;;22.90;40.52;95038.41;5032999;28;20202;-40
2023/06/28 05:37:34;;;;;;;0.40;0.40;;;22.60;55.70;;;22.89;40.73;95040.28;5032963;28;20202;-41
2023/06/28 05:40:02;;;;;;;0.40;0.40;;;22.60;55.60;;;22.86;40.74;95044.31;5032508;28;20203;-39
2023/06/28 05:42:29;;;;;;;0.40;0.40;;;22.60;55.60;;;22.86;40.52;95052.34;5031830;28;20202;-38
2023/06/28 05:44:56;;;;;;;0.40;0.40;;;22.60;55.50;;;22.86;40.55;95041.63;5032685;28;20202;-41
2023/06/28 05:47:23;;;;;;;0.40;0.40;;;22.60;55.40;;;22.86;40.64;95046.16;5031550;28;20640;-45
2023/06/28 05:49:50;;;;;;;0.47;0.47;;;22.60;55.50;;;22.87;40.64;95047.78;5032432;28;20189;-46
2023/06/28 05:52:18;;;;;;;0.30;0.30;;;22.60;55.50;;;22.85;40.59;95039.19;5032734;28;20249;-41
2023/06/28 05:54:45;;;;;;;0.30;0.30;;;22.60;56.70;;;22.84;40.77;95041.09;5048117;28;20205;-40
2023/06/28 05:57:12;;;;;;;0.40;0.40;;;22.60;55.50;;;22.85;40.58;95045.38;5048036;28;20260;-41
2023/06/28 05:59:39;;;;;;;0.40;0.40;;;22.60;55.50;;;22.82;40.63;95040.53;5032467;28;20701;-43
2023/06/28 06:02:07;;;;;;;0.30;0.30;;;22.60;55.50;;;22.84;40.75;95043.75;5032551;28;20634;-41
2023/06/28 06:04:34;;;;;;;0.40;0.40;;;22.60;55.50;;;22.84;40.49;95040.28;5031591;28;20261;-44
2023/06/28 06:07:01;;;;;;;0.40;0.40;;;22.60;55.50;;;22.84;40.85;95034.94;5032536;28;20287;-45
2023/06/28 06:09:30;;;;;;;0.40;0.40;;;22.60;55.60;;;22.84;40.79;95030.38;5047776;28;20192;-42
2023/06/28 06:11:57;;;;;;;0.30;0.30;;;22.60;55.60;;;22.85;40.45;95036.53;5031396;28;20659;-40
2023/06/28 06:14:24;;;;;;;0.40;0.40;;;22.60;55.50;;;22.86;40.64;95028.25;5032223;28;20506;-40
2023/06/28 06:16:54;;;;;;;0.30;0.30;;;22.60;55.60;;;22.86;40.61;95030.13;5031373;28;20202;-40
2023/06/28 06:19:40;;;;;;;0.30;0.30;;;22.60;55.60;;;22.85;40.62;95034.69;5031423;28;20228;-41
2023/06/28 06:22:07;;;;;;;0.40;0.40;;;22.60;55.70;;;22.88;40.67;95037.91;5032046;28;20245;-40
2023/06/28 06:24:34;;;;;;;0.32;0.32;;;22.60;55.70;;;22.86;40.62;95036.28;5047491;28;20555;-39
2023/06/28 06:27:03;;;;;;;0.30;0.30;;;22.60;55.60;;;22.89;40.93;95034.94;5032159;28;20301;-40
2023/06/28 06:29:30;;;;;;;0.38;0.38;;;22.60;55.60;;;22.90;40.80;95031.22;5031760;28;20194;-40
2023/06/28 06:31:57;;;;;;;0.45;0.45;;;22.60;55.70;;;22.91;40.72;95038.16;5031931;28;20253;-40
2023/06/28 06:34:25;;;;;;;0.40;0.40;;;22.60;55.60;;;22.91;40.77;95035.50;5031050;28;20192;-40
2023/06/28 06:36:54;;;;;;;0.32;0.32;;;22.70;55.70;;;22.92;40.87;95031.72;5032142;28;20203;-39
2023/06/28 06:39:22;;;;;;;0.30;0.30;;;22.70;55.80;;;22.93;40.78;95037.88;5047282;28;20206;-41
2023/06/28 06:41:49;;;;;;;0.32;0.32;;;22.70;55.80;;;22.93;40.86;95036.00;5032078;28;20200;-39
2023/06/28 06:44:16;;;;;;;0.30;0.30;;;22.70;55.80;;;22.91;40.63;95035.50;5032341;28;20196;-40
2023/06/28 06:46:43;;;;;;;0.40;0.40;;;22.70;55.80;;;22.90;41.11;95039.22;5032485;28;20228;-39
2023/06/28 06:49:10;;;;;;;0.43;0.43;;;22.70;55.80;;;22.97;41.05;95036.28;5030766;28;20196;-41
2023/06/28 06:51:37;;;;;;;0.40;0.40;;;22.70;55.80;;;22.97;40.86;95037.09;5031700;28;20200;-39
2023/06/28 06:54:04;;;;;;;0.30;0.30;;;22.80;56.00;;;22.99;40.75;95039.50;5031659;28;20280;-41
2023/06/28 06:56:32;;;;;;;0.30;0.30;;;22.70;55.90;;;23.00;41.17;95041.09;5047278;28;20208;-40
2023/06/28 06:59:00;;;;;;;0.40;0.40;;;22.70;55.90;;;23.00;40.71;95041.09;5031596;28;20635;-42
2023/06/28 07:01:29;;;;;;;0.43;0.43;;;22.80;56.00;;;23.01;40.99;95038.16;5031502;28;20196;-39
2023/06/28 07:03:57;;;;;;;0.50;0.50;;;22.80;56.00;;;23.01;40.70;95045.38;5031759;28;20214;-39
2023/06/28 07:06:24;;;;;;;0.30;0.30;;;22.80;56.00;;;23.03;41.18;95046.72;5030499;28;20303;-39
2023/06/28 07:08:51;;;;;;;0.40;0.40;;;22.80;56.00;;;23.00;41.00;95044.56;5031505;28;20277;-41
2023/06/28 07:11:18;;;;;;;0.30;0.30;;;22.80;56.00;;;23.03;40.90;95030.69;5031572;28;20285;-43
2023/06/28 07:13:45;;;;;;;0.40;0.40;;;22.80;56.00;;;23.03;40.89;95041.38;5031746;28;20185;-40
2023/06/28 07:16:12;;;;;;;0.35;0.35;;;22.80;56.00;;;23.05;41.00;95027.72;5030498;28;20200;-39
2023/06/28 07:18:40;;;;;;;0.35;0.35;;;22.80;56.10;;;23.07;41.09;95038.97;5031388;28;20260;-45
2023/06/28 07:21:07;;;;;;;0.47;0.47;;;22.80;56.10;;;23.08;40.92;95024.50;5031186;28;20221;-41
2023/06/28 07:23:34;;;;;;;0.30;0.30;;;22.80;56.10;;;23.10;41.09;95035.75;5031139;28;20232;-40
2023/06/28 07:26:01;;;;;;;0.35;0.35;;;22.80;56.00;;;23.12;41.28;95033.59;5030342;28;20237;-41
2023/06/28 07:28:29;;;;;;;0.50;0.50;;;22.90;56.20;;;23.13;40.96;95024.50;5031231;28;20696;-41
2023/06/28 07:30:59;;;;;;;0.30;0.30;;;22.90;56.20;;;23.16;41.23;95028.53;5031338;28;20267;-39
2023/06/28 07:33:26;;;;;;;0.40;0.40;;;22.90;56.20;;;23.16;41.16;95033.88;5050180;28;20245;-43
2023/06/28 07:35:53;;;;;;;0.40;0.40;;;22.90;56.20;;;23.10;41.33;95018.91;5034643;28;20521;-43
2023/06/28 07:38:22;;;;;;;0.30;0.30;;;22.90;56.20;;;23.21;41.06;95030.44;5034492;28;20203;-43
2023/06/28 07:40:50;;;;;;;0.40;0.40;;;22.90;56.20;;;23.21;40.98;95035.78;5033469;28;20518;-41
2023/06/28 07:43:19;;;;;;;0.30;0.30;;;22.90;56.10;;;23.22;41.09;95026.66;5034425;28;20290;-40
2023/06/28 07:45:46;;;;;;;0.40;0.40;;;23.00;56.30;;;23.24;41.24;95029.88;5049885;28;20658;-40
2023/06/28 07:48:13;;;;;;;0.30;0.30;;;23.00;56.40;;;23.25;41.32;95032.28;5034640;28;20220;-43
2023/06/28 07:50:42;;;;;;;0.40;0.40;;;23.00;56.30;;;23.26;41.11;95027.75;5034433;28;20192;-43
2023/06/28 07:53:09;;;;;;;0.40;0.40;;;23.00;56.30;;;23.30;41.10;95029.63;5034308;28;20188;-44
2023/06/28 07:55:37;;;;;;;0.40;0.40;;;23.00;56.40;;;23.32;41.20;95032.00;5034258;28;20216;-43
2023/06/28 07:58:04;;;;;;;0.35;0.35;;;23.00;56.30;;;23.33;41.18;95034.41;5033524;28;20194;-43
2023/06/28 08:00:31;;;;;;;0.40;0.40;;;23.10;56.30;;;23.35;41.12;95026.09;5033257;28;20199;-44
2023/06/28 08:02:59;;;;;;;0.30;0.30;;;23.10;56.30;;;23.38;41.17;95027.47;5034425;28;20291;-42
2023/06/28 08:05:26;;;;;;;0.30;0.30;;;23.10;56.30;;;23.38;41.02;95030.94;5034119;28;20192;-40
2023/06/28 08:07:54;;;;;;;0.40;0.40;;;23.10;56.10;;;23.39;40.97;95029.06;5034346;28;20659;-40
2023/06/28 08:10:23;;;;;;;0.30;0.30;;;23.10;56.10;;;23.39;40.92;95029.06;5033969;28;20285;-42
2023/06/28 08:12:54;;;;;;;0.30;0.30;;;23.20;56.20;;;23.40;41.30;95022.63;5034325;28;20185;-39
2023/06/28 08:15:21;;;;;;;0.40;0.40;;;23.20;56.20;;;23.41;40.98;95022.38;5033213;28;20626;-38
2023/06/28 08:17:48;;;;;;;0.30;0.30;;;23.20;56.10;;;23.44;41.22;95023.72;5033488;28;20294;-41
2023/06/28 08:20:15;;;;;;;0.40;0.40;;;23.20;56.10;;;23.45;41.06;95022.66;5049511;28;20582;-41
2023/06/28 08:22:42;;;;;;;0.40;0.40;;;23.20;56.20;;;23.49;40.85;95026.38;5033730;28;20194;-39
2023/06/28 08:25:09;;;;;;;0.40;0.40;;;23.20;56.30;;;23.49;41.02;95023.69;5033848;28;20253;-41
2023/06/28 08:27:37;;;;;;;0.38;0.38;;;23.20;57.40;;;23.53;41.02;95021.28;5033955;28;20240;-39
2023/06/28 08:30:05;;;;;;;0.40;0.40;;;23.20;56.00;;;23.53;40.82;95024.75;5033726;28;20282;-38
2023/06/28 08:32:35;;;;;;;0.32;0.32;;;23.30;56.10;;;23.57;40.83;95030.38;5033814;28;20242;-40
2023/06/28 08:35:04;;;;;;;0.40;0.40;;;23.30;56.10;;;23.59;40.87;95029.00;5033694;28;20202;-42
2023/06/28 08:37:34;;;;;;;0.32;0.32;;;23.30;56.20;;;23.61;41.26;95032.22;5033423;28;20253;-41
2023/06/28 08:40:01;;;;;;;0.30;0.30;;;23.40;56.20;;;23.62;41.02;95027.66;5034166;28;20184;-40
2023/06/28 08:42:29;;;;;;;0.40;0.40;;;23.30;56.00;;;23.62;40.55;95020.44;5048928;28;20196;-41
2023/06/28 08:44:59;;;;;;;0.40;0.40;;;23.40;56.00;;;23.63;40.74;95024.75;5033749;28;20230;-41
2023/06/28 08:47:32;;;;;;;0.40;0.40;;;23.40;56.00;;;23.64;40.77;95022.84;5033381;28;20273;-42
2023/06/28 08:49:59;;;;;;;0.40;0.40;;;23.40;56.00;;;23.66;40.88;95012.69;5033756;28;20234;-44
2023/06/28 08:52:29;;;;;;;0.40;0.40;;;23.40;56.00;;;23.69;40.78;95016.69;5032526;28;20272;-41
2023/06/28 08:54:57;;;;;;;0.32;0.32;;;23.50;56.00;;;23.69;40.60;95019.34;5033330;28;20196;-43
2023/06/28 08:57:26;;;;;;;0.40;0.40;;;23.50;56.00;;;23.70;40.78;95020.97;5032481;28;20291;-42
2023/06/28 08:59:53;;;;;;;0.38;0.38;;;23.50;55.90;;;23.71;40.60;95030.63;5033397;28;20283;-41
2023/06/28 09:02:21;;;;;;;0.30;0.30;;;23.50;55.80;;;23.73;40.47;95028.44;5033492;28;20355;-41
2023/06/28 09:04:50;;;;;;;0.30;0.30;;;23.50;55.80;;;23.74;40.57;95024.69;5032607;28;20202;-41
2023/06/28 09:07:20;;;;;;;0.30;0.30;;;23.50;55.80;;;23.74;40.69;95025.50;5048476;28;20693;-41
2023/06/28 09:09:49;;;;;;;0.30;0.30;;;23.50;55.80;;;23.77;40.45;95026.84;5032577;28;20261;-41
2023/06/28 09:12:16;;;;;;;0.40;0.40;;;23.50;55.90;;;23.79;40.76;95016.63;5033232;28;20207;-41
2023/06/28 09:14:43;;;;;;;0.32;0.32;;;23.50;55.80;;;23.79;40.74;95012.09;5032182;28;20660;-41
2023/06/28 09:17:10;;;;;;;0.30;0.30;;;23.50;55.80;;;23.80;40.83;95005.69;5032824;28;20216;-42
2023/06/28 09:19:38;;;;;;;0.30;0.30;;;23.50;55.90;;;23.83;40.53;95002.44;5033201;28;20294;-41
2023/06/28 09:22:08;;;;;;;0.32;0.32;;;23.50;55.80;;;23.85;40.59;94998.69;5032077;28;20280;-42
2023/06/28 09:24:36;;;;;;;0.40;0.40;;;23.50;55.70;;;23.87;40.69;94999.22;5031934;28;20627;-42
2023/06/28 09:27:05;;;;;;;0.35;0.35;;;23.60;55.80;;;23.88;40.46;94995.47;5015864;28;20233;-42
2023/06/28 09:29:33;;;;;;;0.30;0.30;;;23.60;55.70;;;23.88;40.63;94988.22;5032714;28;20281;-42
2023/06/28 09:32:00;;;;;;;0.40;0.40;;;23.60;56.80;;;23.89;40.12;94989.84;5032773;28;20628;-42
2023/06/28 09:34:28;;;;;;;0.30;0.30;;;23.60;55.50;;;23.91;40.22;95005.63;5032104;28;20212;-42
2023/06/28 09:36:57;;;;;;;0.30;0.30;;;23.60;55.50;;;23.91;40.22;95001.09;5032027;28;20284;-41
2023/06/28 09:39:27;;;;;;;0.30;0.30;;;23.60;55.30;;;23.93;40.10;94996.25;5032036;28;20574;-43
2023/06/28 09:41:54;;;;;;;0.40;0.40;;;23.70;55.50;;;23.95;40.07;94991.44;5032093;28;20185;-42
2023/06/28 09:44:30;;;;;;;0.40;0.40;;;23.70;55.60;;;23.96;40.19;94982.34;5032882;28;20274;-44
2023/06/28 09:47:03;;;;;;;0.40;0.40;;;23.60;55.20;;;23.99;40.05;94980.97;5031697;28;20204;-41
2023/06/28 09:49:30;;;;;;;0.30;0.30;;;23.70;56.50;;;24.01;39.96;94978.84;5032516;28;20200;-41
2023/06/28 09:52:06;;;;;;;0.30;0.30;;;23.70;55.30;;;24.03;39.94;94983.91;5032757;28;20273;-41
2023/06/28 09:54:44;;;;;;;0.30;0.30;;;23.70;55.20;;;24.05;39.82;94981.75;5032054;28;20571;-40
2023/06/28 09:57:12;;;;;;;0.40;0.40;;;23.70;55.10;;;24.07;39.96;94991.13;5032560;28;20184;-40
2023/06/28 09:59:41;;;;;;;0.30;0.30;;;23.70;55.20;;;24.09;39.90;94980.13;5031532;28;20259;-42
2023/06/28 10:02:09;;;;;;;0.22;0.22;;;23.70;55.10;;;24.12;40.06;94992.97;5031509;28;20215;-41
2023/06/28 10:04:40;;;;;;;0.30;0.30;;;23.80;55.10;;;24.14;39.86;94993.50;5032318;28;20235;-41
2023/06/28 10:07:10;;;;;;;0.30;0.30;;;23.80;54.90;;;24.16;39.67;94987.84;5032327;28;20214;-40
2023/06/28 10:09:40;;;;;;;0.40;0.40;;;23.80;55.00;;;24.17;39.83;94984.91;5031968;28;20565;-41
2023/06/28 10:12:18;;;;;;;0.30;0.30;;;23.80;54.90;;;24.20;39.64;94987.03;5032184;28;20225;-42
2023/06/28 10:15:03;;;;;;;0.40;0.40;;;23.90;55.00;;;24.20;39.61;94984.34;5032775;28;20231;-40
2023/06/28 10:17:34;;;;;;;0.30;0.30;;;23.90;54.80;;;24.22;39.34;94976.84;5031219;28;20505;-41
2023/06/28 10:20:04;;;;;;;0.40;0.40;;;23.90;54.60;;;24.23;39.32;94965.03;5032398;28;20192;-41
2023/06/28 10:22:32;;;;;;;0.30;0.30;;;23.90;54.40;;;24.24;39.04;94972.00;5031897;28;20703;-40
2023/06/28 10:25:02;;;;;;;0.35;0.35;;;23.90;54.30;;;24.25;39.23;94972.81;5047646;28;20313;-40